Time;durP1;ratioP1;P1;durP2;ratioP2;P2;SDS_P1;SDS_P2;PMS_P1;PMS_P2;Temp;Humidity;BMP_temperature;BMP_pressure;BME280_temperature;BME280_humidity;BME280_pressure;Samples;Min_cycle;Max_cycle;Signal;HPM_P1;HPM_P2
2023/12/18 00:01:40;;;;;;;0.82;0.82;;;;;;;;;;5088788;28;20027;-71
2023/12/18 00:04:07;;;;;;;0.00;0.00;;;;;;;;;;5088661;28;20165;-70
2023/12/18 00:06:33;;;;;;;0.00;0.00;;;;;;;;;;5088691;28;20027;-70
2023/12/18 00:08:58;;;;;;;0.20;0.20;;;;;;;;;;5089017;28;20032;-69
2023/12/18 00:11:24;;;;;;;0.10;0.10;;;;;;;;;;5089144;28;20028;-70
2023/12/18 00:13:50;;;;;;;0.10;0.10;;;;;;;;;;5089381;28;20036;-70
2023/12/18 00:16:15;;;;;;;0.10;0.10;;;;;;;;;;5091563;28;20455;-69
2023/12/18 00:18:41;;;;;;;0.10;0.10;;;;;;;;;;5094150;28;20077;-70
2023/12/18 00:21:06;;;;;;;0.10;0.10;;;;;;;;;;5093900;28;20067;-69
2023/12/18 00:23:32;;;;;;;0.85;0.85;;;;;;;;;;5094009;28;20024;-70
2023/12/18 00:25:57;;;;;;;0.10;0.10;;;;;;;;;;5094268;28;20074;-69
2023/12/18 00:28:23;;;;;;;45.13;9.45;;;;;;;;;;5093811;28;20044;-68
2023/12/18 00:30:48;;;;;;;0.25;0.25;;;;;;;;;;5093990;28;20020;-69
2023/12/18 00:33:14;;;;;;;0.30;0.30;;;;;;;;;;5093771;28;20034;-69
2023/12/18 00:35:40;;;;;;;0.45;0.45;;;;;;;;;;5093931;28;20040;-69
2023/12/18 00:38:05;;;;;;;3.35;3.08;;;;;;;;;;5093909;28;20042;-69
2023/12/18 00:40:31;;;;;;;0.10;0.10;;;;;;;;;;5075859;28;20024;-70
2023/12/18 00:42:57;;;;;;;0.10;0.10;;;;;;;;;;5093493;28;20081;-69
2023/12/18 00:45:23;;;;;;;0.10;0.10;;;;;;;;;;5093581;28;20492;-70
2023/12/18 00:47:48;;;;;;;0.10;0.10;;;;;;;;;;5093492;28;20032;-69
2023/12/18 00:50:14;;;;;;;0.10;0.10;;;;;;;;;;5093537;28;20020;-70
2023/12/18 00:52:40;;;;;;;0.57;0.57;;;;;;;;;;5075218;28;20043;-70
2023/12/18 00:55:06;;;;;;;0.10;0.10;;;;;;;;;;5093455;28;20077;-70
2023/12/18 00:57:32;;;;;;;0.10;0.10;;;;;;;;;;5093650;28;20115;-70
2023/12/18 00:59:58;;;;;;;0.10;0.10;;;;;;;;;;5094348;28;20032;-70
2023/12/18 01:02:23;;;;;;;0.50;0.50;;;;;;;;;;5097790;28;20372;-70
2023/12/18 01:04:49;;;;;;;0.43;0.43;;;;;;;;;;5097785;28;20073;-69
2023/12/18 01:07:14;;;;;;;0.10;0.10;;;;;;;;;;5097512;28;20110;-69
2023/12/18 01:09:40;;;;;;;2.85;1.20;;;;;;;;;;5097553;28;20408;-69
2023/12/18 01:12:06;;;;;;;0.10;0.10;;;;;;;;;;5097258;28;20391;-69
2023/12/18 01:14:32;;;;;;;0.10;0.10;;;;;;;;;;5097590;28;20111;-70
2023/12/18 01:16:57;;;;;;;1.75;1.65;;;;;;;;;;5097380;28;20034;-70
2023/12/18 01:19:23;;;;;;;0.98;0.98;;;;;;;;;;5097364;28;20019;-69
2023/12/18 01:21:48;;;;;;;0.10;0.10;;;;;;;;;;5097112;28;20032;-70
2023/12/18 01:24:14;;;;;;;0.32;0.32;;;;;;;;;;5097176;28;20032;-69
2023/12/18 01:26:39;;;;;;;0.20;0.20;;;;;;;;;;5096230;28;20039;-70
2023/12/18 01:29:05;;;;;;;0.10;0.10;;;;;;;;;;5097017;28;20059;-70
2023/12/18 01:31:31;;;;;;;1.65;1.50;;;;;;;;;;5097119;28;20032;-70
2023/12/18 01:33:57;;;;;;;0.10;0.10;;;;;;;;;;5096874;28;20024;-70
2023/12/18 01:36:22;;;;;;;0.10;0.10;;;;;;;;;;5096940;28;20032;-70
2023/12/18 01:38:48;;;;;;;0.10;0.10;;;;;;;;;;5096897;28;20378;-70
2023/12/18 01:41:14;;;;;;;0.10;0.10;;;;;;;;;;5096879;28;20051;-70
2023/12/18 01:43:39;;;;;;;0.10;0.10;;;;;;;;;;5097014;28;20028;-70
2023/12/18 01:46:05;;;;;;;0.20;0.20;;;;;;;;;;5096846;28;20609;-70
2023/12/18 01:48:31;;;;;;;0.10;0.10;;;;;;;;;;5078531;28;20471;-70
2023/12/18 01:50:58;;;;;;;0.10;0.10;;;;;;;;;;5096632;28;20374;-70
2023/12/18 01:53:25;;;;;;;0.10;0.10;;;;;;;;;;5096792;28;20046;-70
2023/12/18 01:55:51;;;;;;;0.38;0.38;;;;;;;;;;5096930;28;20031;-70
2023/12/18 01:58:17;;;;;;;0.10;0.10;;;;;;;;;;5097162;28;20036;-70
2023/12/18 02:00:43;;;;;;;0.10;0.10;;;;;;;;;;5097044;28;20107;-70
2023/12/18 02:03:08;;;;;;;0.10;0.10;;;;;;;;;;5096554;28;20122;-70
2023/12/18 02:05:34;;;;;;;0.10;0.10;;;;;;;;;;5096455;28;20057;-70
2023/12/18 02:08:00;;;;;;;0.10;0.10;;;;;;;;;;5096728;28;20386;-70
2023/12/18 02:10:26;;;;;;;0.03;0.03;;;;;;;;;;5095952;28;20032;-70
2023/12/18 02:12:51;;;;;;;0.10;0.10;;;;;;;;;;5096189;28;20036;-70
2023/12/18 02:15:17;;;;;;;0.10;0.10;;;;;;;;;;5096539;28;20059;-70
2023/12/18 02:17:43;;;;;;;0.10;0.10;;;;;;;;;;5096370;28;20024;-70
2023/12/18 02:20:08;;;;;;;0.10;0.10;;;;;;;;;;5096272;28;20016;-70
2023/12/18 02:22:35;;;;;;;0.10;0.10;;;;;;;;;;5096345;28;20035;-69
2023/12/18 02:25:01;;;;;;;0.20;0.20;;;;;;;;;;5096441;28;20032;-69
2023/12/18 02:27:26;;;;;;;1.80;1.70;;;;;;;;;;5096256;28;20093;-69
2023/12/18 02:29:52;;;;;;;0.10;0.10;;;;;;;;;;5096105;28;20032;-69
2023/12/18 02:32:17;;;;;;;0.10;0.10;;;;;;;;;;5095864;28;20494;-69
2023/12/18 02:34:43;;;;;;;0.00;0.00;;;;;;;;;;5095817;28;20078;-69
2023/12/18 02:37:09;;;;;;;0.10;0.10;;;;;;;;;;5095892;28;20035;-69
2023/12/18 02:39:34;;;;;;;0.10;0.10;;;;;;;;;;5077817;28;20024;-69
2023/12/18 02:42:00;;;;;;;0.10;0.10;;;;;;;;;;5096063;28;20028;-69
2023/12/18 02:44:25;;;;;;;0.10;0.10;;;;;;;;;;5095916;28;20398;-69
2023/12/18 02:46:51;;;;;;;0.10;0.10;;;;;;;;;;5095675;28;20110;-70
2023/12/18 02:49:16;;;;;;;0.00;0.00;;;;;;;;;;5095609;28;20498;-70
2023/12/18 02:51:42;;;;;;;0.10;0.10;;;;;;;;;;5095714;28;20028;-70
2023/12/18 02:54:07;;;;;;;0.10;0.10;;;;;;;;;;5095497;28;20111;-69
2023/12/18 02:56:33;;;;;;;1.67;1.65;;;;;;;;;;5095294;28;20035;-68
2023/12/18 02:58:58;;;;;;;0.10;0.10;;;;;;;;;;5095463;28;20019;-69
2023/12/18 03:01:26;;;;;;;0.10;0.10;;;;;;;;;;5095418;28;20039;-69
2023/12/18 03:03:52;;;;;;;0.10;0.10;;;;;;;;;;5077040;28;20028;-70
2023/12/18 03:06:17;;;;;;;0.10;0.10;;;;;;;;;;5095513;28;20020;-70
2023/12/18 03:08:43;;;;;;;0.10;0.10;;;;;;;;;;5095210;28;20383;-70
2023/12/18 03:11:09;;;;;;;0.10;0.10;;;;;;;;;;5095149;28;20368;-70
2023/12/18 03:13:35;;;;;;;0.10;0.10;;;;;;;;;;5095096;28;20016;-69
2023/12/18 03:16:00;;;;;;;0.00;0.00;;;;;;;;;;5095127;28;20028;-69
2023/12/18 03:18:26;;;;;;;0.00;0.00;;;;;;;;;;5094915;28;20031;-70
2023/12/18 03:20:51;;;;;;;0.00;0.00;;;;;;;;;;5095008;28;20433;-69
2023/12/18 03:23:17;;;;;;;0.10;0.10;;;;;;;;;;5094030;28;20025;-70
2023/12/18 03:25:43;;;;;;;0.10;0.10;;;;;;;;;;5094883;28;20058;-69
2023/12/18 03:28:08;;;;;;;0.30;0.30;;;;;;;;;;5094585;28;20541;-69
2023/12/18 03:30:34;;;;;;;0.10;0.10;;;;;;;;;;5094907;28;20020;-69
2023/12/18 03:33:04;;;;;;;0.10;0.10;;;;;;;;;;5094576;28;20111;-69
2023/12/18 03:35:30;;;;;;;0.05;0.05;;;;;;;;;;5076827;28;20028;-69
2023/12/18 03:37:59;;;;;;;0.10;0.10;;;;;;;;;;5094768;28;20035;-69
2023/12/18 03:40:32;;;;;;;0.00;0.00;;;;;;;;;;5094696;28;20099;-69
2023/12/18 03:42:57;;;;;;;0.10;0.10;;;;;;;;;;5094571;28;20027;-70
2023/12/18 03:45:23;;;;;;;0.10;0.10;;;;;;;;;;5094481;28;20028;-69
2023/12/18 03:47:48;;;;;;;0.10;0.10;;;;;;;;;;5094292;28;20024;-69
2023/12/18 03:50:14;;;;;;;0.10;0.10;;;;;;;;;;5094616;28;20032;-69
2023/12/18 03:52:39;;;;;;;0.10;0.10;;;;;;;;;;5094421;28;20036;-70
2023/12/18 03:55:05;;;;;;;0.03;0.03;;;;;;;;;;5094313;28;20546;-70
2023/12/18 03:57:31;;;;;;;0.20;0.20;;;;;;;;;;5094442;28;20031;-69
2023/12/18 03:59:57;;;;;;;0.10;0.10;;;;;;;;;;5096611;28;20020;-70
2023/12/18 04:02:23;;;;;;;0.55;0.55;;;;;;;;;;5090369;28;20108;-70
2023/12/18 04:04:49;;;;;;;0.10;0.10;;;;;;;;;;5071083;28;20531;-69
2023/12/18 04:07:14;;;;;;;0.10;0.10;;;;;;;;;;5070920;28;20024;-70
2023/12/18 04:09:40;;;;;;;0.10;0.10;;;;;;;;;;5070212;28;20737;-70
2023/12/18 04:12:06;;;;;;;1.55;1.00;;;;;;;;;;5070546;28;20028;-70
2023/12/18 04:14:32;;;;;;;0.65;0.65;;;;;;;;;;5051749;28;20024;-70
2023/12/18 04:16:57;;;;;;;0.00;0.00;;;;;;;;;;5069933;28;20033;-70
2023/12/18 04:19:23;;;;;;;0.10;0.10;;;;;;;;;;5052416;28;20032;-69
2023/12/18 04:21:49;;;;;;;0.10;0.10;;;;;;;;;;5069997;28;20082;-70
2023/12/18 04:24:14;;;;;;;0.10;0.10;;;;;;;;;;5069994;28;20517;-70
2023/12/18 04:26:40;;;;;;;0.10;0.10;;;;;;;;;;5070064;28;20027;-70
2023/12/18 04:29:05;;;;;;;0.00;0.00;;;;;;;;;;5069704;28;20063;-69
2023/12/18 04:31:31;;;;;;;0.08;0.08;;;;;;;;;;5069702;28;20107;-70
2023/12/18 04:33:57;;;;;;;0.10;0.10;;;;;;;;;;5069459;28;20424;-70
2023/12/18 04:36:23;;;;;;;0.10;0.10;;;;;;;;;;5069674;28;20036;-70
2023/12/18 04:38:49;;;;;;;0.00;0.00;;;;;;;;;;5069639;28;20028;-71
2023/12/18 04:41:21;;;;;;;0.00;0.00;;;;;;;;;;5069836;28;20025;-70
2023/12/18 04:43:47;;;;;;;0.05;0.05;;;;;;;;;;5069637;28;20051;-69
2023/12/18 04:46:13;;;;;;;0.00;0.00;;;;;;;;;;5069587;28;20012;-69
2023/12/18 04:48:38;;;;;;;0.10;0.10;;;;;;;;;;5069546;28;20033;-69
2023/12/18 04:51:04;;;;;;;0.68;0.68;;;;;;;;;;5051815;28;20032;-69
2023/12/18 04:53:32;;;;;;;0.10;0.10;;;;;;;;;;5069509;28;20036;-69
2023/12/18 04:55:57;;;;;;;0.10;0.10;;;;;;;;;;5051917;28;20044;-69
2023/12/18 04:58:23;;;;;;;0.00;0.00;;;;;;;;;;5069203;28;20028;-70
2023/12/18 05:00:48;;;;;;;0.50;0.50;;;;;;;;;;5069333;28;20561;-69
2023/12/18 05:03:14;;;;;;;0.00;0.00;;;;;;;;;;5069430;28;20380;-69
2023/12/18 05:05:40;;;;;;;0.10;0.10;;;;;;;;;;5070058;28;20362;-69
2023/12/18 05:08:05;;;;;;;0.10;0.10;;;;;;;;;;5069751;28;20032;-70
2023/12/18 05:10:31;;;;;;;0.00;0.00;;;;;;;;;;5069208;28;20388;-70
2023/12/18 05:12:57;;;;;;;0.10;0.10;;;;;;;;;;5069342;28;20033;-69
2023/12/18 05:15:22;;;;;;;0.00;0.00;;;;;;;;;;5069495;28;20036;-69
2023/12/18 05:17:48;;;;;;;0.10;0.10;;;;;;;;;;5069253;28;20028;-69
2023/12/18 05:20:14;;;;;;;0.00;0.00;;;;;;;;;;5069153;28;20052;-69
2023/12/18 05:22:39;;;;;;;0.00;0.00;;;;;;;;;;5051197;28;20031;-69
2023/12/18 05:25:05;;;;;;;0.00;0.00;;;;;;;;;;5069633;28;20468;-69
2023/12/18 05:27:31;;;;;;;0.10;0.10;;;;;;;;;;5068966;28;20051;-69
2023/12/18 05:29:57;;;;;;;0.10;0.10;;;;;;;;;;5069336;28;20028;-69
2023/12/18 05:32:22;;;;;;;0.10;0.10;;;;;;;;;;5069110;28;20036;-70
2023/12/18 05:34:49;;;;;;;0.10;0.10;;;;;;;;;;5069059;28;20048;-71
2023/12/18 05:37:14;;;;;;;0.10;0.10;;;;;;;;;;5083422;28;20012;-69
2023/12/18 05:39:40;;;;;;;0.10;0.10;;;;;;;;;;5088554;28;20021;-70
2023/12/18 05:42:06;;;;;;;0.10;0.10;;;;;;;;;;5088842;28;20025;-70
2023/12/18 05:44:31;;;;;;;0.10;0.10;;;;;;;;;;5088460;28;20099;-70
2023/12/18 05:46:57;;;;;;;0.10;0.10;;;;;;;;;;5090869;28;20035;-70
2023/12/18 05:49:23;;;;;;;0.05;0.05;;;;;;;;;;5092452;28;20028;-70
2023/12/18 05:51:49;;;;;;;0.10;0.10;;;;;;;;;;5057695;28;20392;-70
2023/12/18 05:54:15;;;;;;;0.10;0.10;;;;;;;;;;5074436;28;20059;-69
2023/12/18 05:56:40;;;;;;;0.08;0.08;;;;;;;;;;5091406;28;20062;-70
2023/12/18 05:59:06;;;;;;;0.08;0.08;;;;;;;;;;5075451;28;20016;-71
2023/12/18 06:01:31;;;;;;;0.10;0.10;;;;;;;;;;5074209;28;20109;-69
2023/12/18 06:03:57;;;;;;;0.10;0.10;;;;;;;;;;5092381;28;20032;-69
2023/12/18 06:06:22;;;;;;;0.00;0.00;;;;;;;;;;5090845;28;20024;-69
2023/12/18 06:08:48;;;;;;;0.10;0.10;;;;;;;;;;5079461;28;20059;-69
2023/12/18 06:11:15;;;;;;;0.10;0.10;;;;;;;;;;5067361;28;20069;-70
2023/12/18 06:13:41;;;;;;;0.00;0.00;;;;;;;;;;5076084;28;20035;-70
2023/12/18 06:16:06;;;;;;;0.10;0.10;;;;;;;;;;5072264;28;20103;-70
2023/12/18 06:18:32;;;;;;;0.10;0.10;;;;;;;;;;5072030;28;20116;-71
2023/12/18 06:21:02;;;;;;;0.10;0.10;;;;;;;;;;5072292;28;20387;-68
2023/12/18 06:23:28;;;;;;;0.10;0.10;;;;;;;;;;5076273;28;20124;-69
2023/12/18 06:25:53;;;;;;;0.08;0.08;;;;;;;;;;5084066;28;20036;-70
2023/12/18 06:28:19;;;;;;;0.10;0.10;;;;;;;;;;5080087;28;20373;-70
2023/12/18 06:30:44;;;;;;;0.10;0.10;;;;;;;;;;5087621;28;20040;-69
2023/12/18 06:33:10;;;;;;;0.00;0.00;;;;;;;;;;5090995;28;20032;-70
2023/12/18 06:35:36;;;;;;;0.00;0.00;;;;;;;;;;5091745;28;20085;-70
2023/12/18 06:38:01;;;;;;;0.10;0.10;;;;;;;;;;5091609;28;20035;-69
2023/12/18 06:40:27;;;;;;;0.10;0.10;;;;;;;;;;5091147;28;20111;-70
2023/12/18 06:42:52;;;;;;;0.10;0.10;;;;;;;;;;5084990;28;20028;-70
2023/12/18 06:45:18;;;;;;;0.00;0.00;;;;;;;;;;5071724;28;20115;-69
2023/12/18 06:47:43;;;;;;;0.10;0.10;;;;;;;;;;5070861;28;20559;-70
2023/12/18 06:50:09;;;;;;;0.10;0.10;;;;;;;;;;5082050;28;20419;-70
2023/12/18 06:52:34;;;;;;;0.10;0.10;;;;;;;;;;5070961;28;20021;-70
2023/12/18 06:55:00;;;;;;;0.00;0.00;;;;;;;;;;5069001;28;20037;-70
2023/12/18 06:57:26;;;;;;;0.10;0.10;;;;;;;;;;5068960;28;20468;-70
2023/12/18 06:59:52;;;;;;;0.05;0.05;;;;;;;;;;5069906;28;20358;-70
2023/12/18 07:02:17;;;;;;;0.10;0.10;;;;;;;;;;5070205;28;20020;-69
2023/12/18 07:04:43;;;;;;;0.15;0.15;;;;;;;;;;5079330;28;20024;-70
2023/12/18 07:07:08;;;;;;;0.30;0.30;;;;;;;;;;5059500;28;20024;-68
2023/12/18 07:09:34;;;;;;;0.10;0.10;;;;;;;;;;5070950;28;20024;-70
2023/12/18 07:12:00;;;;;;;0.10;0.10;;;;;;;;;;5071051;28;20054;-70
2023/12/18 07:14:25;;;;;;;0.10;0.10;;;;;;;;;;5070649;28;20552;-69
2023/12/18 07:16:53;;;;;;;0.10;0.10;;;;;;;;;;5071146;28;20116;-69
2023/12/18 07:19:18;;;;;;;0.00;0.00;;;;;;;;;;5070796;28;20375;-70
2023/12/18 07:21:44;;;;;;;0.10;0.10;;;;;;;;;;5070659;28;20025;-70
2023/12/18 07:24:10;;;;;;;0.10;0.10;;;;;;;;;;5052503;28;20047;-69
2023/12/18 07:26:35;;;;;;;0.00;0.00;;;;;;;;;;5070601;28;20036;-70
2023/12/18 07:29:01;;;;;;;0.10;0.10;;;;;;;;;;5070862;28;20037;-70
2023/12/18 07:31:26;;;;;;;0.10;0.10;;;;;;;;;;5070419;28;20036;-70
2023/12/18 07:33:52;;;;;;;0.10;0.10;;;;;;;;;;5070957;28;20032;-70
2023/12/18 07:36:18;;;;;;;0.10;0.10;;;;;;;;;;5070929;28;20387;-70
2023/12/18 07:38:45;;;;;;;0.10;0.10;;;;;;;;;;5070639;28;20036;-70
2023/12/18 07:41:11;;;;;;;0.10;0.10;;;;;;;;;;5085241;28;20028;-70
2023/12/18 07:43:37;;;;;;;0.10;0.10;;;;;;;;;;5090819;28;20035;-69
2023/12/18 07:46:03;;;;;;;0.10;0.10;;;;;;;;;;5089154;28;20020;-69
2023/12/18 07:48:31;;;;;;;0.10;0.10;;;;;;;;;;5089826;28;20031;-69
2023/12/18 07:50:57;;;;;;;0.10;0.10;;;;;;;;;;5090067;28;20028;-69
2023/12/18 07:53:23;;;;;;;0.05;0.05;;;;;;;;;;5090887;28;20489;-69
2023/12/18 07:55:48;;;;;;;0.10;0.10;;;;;;;;;;5089617;28;20028;-70
2023/12/18 07:58:16;;;;;;;0.10;0.10;;;;;;;;;;5090471;28;20445;-69
2023/12/18 08:00:41;;;;;;;0.08;0.08;;;;;;;;;;5090190;28;20024;-70
2023/12/18 08:03:07;;;;;;;0.10;0.10;;;;;;;;;;5072530;28;20089;-70
2023/12/18 08:05:32;;;;;;;0.10;0.10;;;;;;;;;;5090454;28;20429;-69
2023/12/18 08:07:58;;;;;;;0.10;0.10;;;;;;;;;;5090340;28;20056;-69
2023/12/18 08:10:24;;;;;;;0.10;0.10;;;;;;;;;;5089426;28;20383;-70
2023/12/18 08:12:49;;;;;;;0.65;0.65;;;;;;;;;;5090002;28;20031;-70
2023/12/18 08:15:15;;;;;;;0.10;0.10;;;;;;;;;;5089990;28;20039;-70
2023/12/18 08:17:41;;;;;;;0.35;0.35;;;;;;;;;;5090154;28;20024;-69
2023/12/18 08:20:07;;;;;;;0.10;0.10;;;;;;;;;;5089903;28;20044;-69
2023/12/18 08:22:33;;;;;;;0.10;0.10;;;;;;;;;;5089120;28;20539;-69
2023/12/18 08:25:00;;;;;;;8.57;2.35;;;;;;;;;;5089366;28;20024;-69
2023/12/18 08:27:26;;;;;;;0.10;0.10;;;;;;;;;;5088996;28;20518;-69
2023/12/18 08:29:52;;;;;;;0.13;0.13;;;;;;;;;;5089718;28;20031;-70
2023/12/18 08:32:17;;;;;;;0.10;0.10;;;;;;;;;;5089035;28;20036;-69
2023/12/18 08:34:43;;;;;;;0.20;0.20;;;;;;;;;;5084081;28;20122;-69
2023/12/18 08:37:08;;;;;;;0.10;0.10;;;;;;;;;;5077845;28;20036;-69
2023/12/18 08:39:34;;;;;;;0.25;0.25;;;;;;;;;;5069282;28;20146;-69
2023/12/18 08:42:00;;;;;;;1.45;1.38;;;;;;;;;;5069265;28;20032;-69
2023/12/18 08:44:25;;;;;;;0.10;0.10;;;;;;;;;;5069620;28;20173;-69
2023/12/18 08:46:51;;;;;;;0.30;0.30;;;;;;;;;;5078109;28;20048;-70
2023/12/18 08:49:16;;;;;;;0.20;0.20;;;;;;;;;;5089493;28;20111;-70
2023/12/18 08:51:42;;;;;;;0.10;0.10;;;;;;;;;;5082950;28;20447;-69
2023/12/18 08:54:08;;;;;;;0.40;0.40;;;;;;;;;;5081837;28;20447;-74
2023/12/18 08:56:34;;;;;;;0.10;0.10;;;;;;;;;;5087712;28;20489;-75
2023/12/18 08:59:00;;;;;;;0.15;0.15;;;;;;;;;;5087612;28;20035;-75
2023/12/18 09:01:25;;;;;;;0.30;0.30;;;;;;;;;;5087393;28;20032;-77
2023/12/18 09:03:52;;;;;;;0.30;0.30;;;;;;;;;;5081046;28;20028;-76
2023/12/18 09:06:17;;;;;;;30.08;5.10;;;;;;;;;;5084415;28;20024;-75
2023/12/18 09:08:43;;;;;;;0.77;0.77;;;;;;;;;;5087507;28;20572;-75
2023/12/18 09:11:08;;;;;;;3.42;3.15;;;;;;;;;;5081358;28;20040;-75
2023/12/18 09:13:36;;;;;;;0.50;0.50;;;;;;;;;;5087323;28;20063;-75
2023/12/18 09:16:02;;;;;;;1.90;1.83;;;;;;;;;;5068650;28;20032;-75
2023/12/18 09:18:28;;;;;;;1.45;1.45;;;;;;;;;;5087392;28;20031;-75
2023/12/18 09:20:53;;;;;;;0.30;0.30;;;;;;;;;;5088201;28;20510;-76
2023/12/18 09:23:19;;;;;;;0.20;0.20;;;;;;;;;;5091617;28;20031;-76
2023/12/18 09:25:44;;;;;;;0.10;0.10;;;;;;;;;;5091327;28;20024;-76
2023/12/18 09:28:10;;;;;;;0.10;0.10;;;;;;;;;;5093075;28;20051;-75
2023/12/18 09:30:36;;;;;;;0.10;0.10;;;;;;;;;;5093015;28;20356;-75
2023/12/18 09:33:01;;;;;;;0.55;0.55;;;;;;;;;;5091646;28;20036;-76
2023/12/18 09:35:27;;;;;;;0.20;0.20;;;;;;;;;;5091138;28;20024;-75
2023/12/18 09:37:53;;;;;;;0.57;0.57;;;;;;;;;;5090961;28;20084;-76
2023/12/18 09:40:18;;;;;;;0.25;0.25;;;;;;;;;;5091197;28;20036;-76
2023/12/18 09:42:54;;;;;;;0.20;0.20;;;;;;;;;;5087999;28;20016;-75
2023/12/18 09:45:23;;;;;;;0.10;0.10;;;;;;;;;;5083663;28;20032;-75
2023/12/18 09:47:49;;;;;;;0.80;0.80;;;;;;;;;;5088442;28;20024;-76
2023/12/18 09:50:15;;;;;;;0.10;0.10;;;;;;;;;;5085342;28;20551;-76
2023/12/18 09:52:45;;;;;;;0.25;0.25;;;;;;;;;;5079425;28;20128;-75
2023/12/18 09:55:11;;;;;;;0.10;0.10;;;;;;;;;;5091377;28;20028;-75
2023/12/18 09:57:37;;;;;;;0.65;0.65;;;;;;;;;;5091366;28;20429;-75
2023/12/18 10:00:03;;;;;;;0.20;0.20;;;;;;;;;;5077784;28;20063;-75
2023/12/18 10:02:37;;;;;;;0.10;0.10;;;;;;;;;;5089315;28;20051;-75
2023/12/18 10:05:03;;;;;;;0.20;0.20;;;;;;;;;;5087410;28;20024;-75
2023/12/18 10:07:29;;;;;;;0.10;0.10;;;;;;;;;;5081281;28;20031;-75
2023/12/18 10:09:54;;;;;;;0.10;0.10;;;;;;;;;;5089894;28;20077;-75
2023/12/18 10:12:20;;;;;;;0.10;0.10;;;;;;;;;;5090642;28;20027;-75
2023/12/18 10:14:46;;;;;;;0.10;0.10;;;;;;;;;;5072036;28;20100;-75
2023/12/18 10:17:11;;;;;;;0.50;0.50;;;;;;;;;;5090405;28;20068;-75
2023/12/18 10:19:41;;;;;;;6.38;0.43;;;;;;;;;;5090259;28;20024;-75
2023/12/18 10:22:06;;;;;;;0.25;0.25;;;;;;;;;;5071784;28;20039;-75
2023/12/18 10:24:32;;;;;;;0.10;0.10;;;;;;;;;;5090048;28;20032;-76
2023/12/18 10:26:58;;;;;;;0.20;0.20;;;;;;;;;;5089992;28;20475;-77
2023/12/18 10:29:23;;;;;;;0.20;0.20;;;;;;;;;;5089742;28;20097;-76
2023/12/18 10:31:49;;;;;;;0.20;0.20;;;;;;;;;;5089547;28;20476;-77
2023/12/18 10:34:17;;;;;;;25.90;5.70;;;;;;;;;;5071338;28;20032;-76
2023/12/18 10:36:42;;;;;;;0.10;0.10;;;;;;;;;;5089583;28;20120;-77
2023/12/18 10:39:09;;;;;;;0.10;0.10;;;;;;;;;;5072031;28;20114;-77
2023/12/18 10:41:36;;;;;;;0.20;0.20;;;;;;;;;;5089899;28;20546;-77
2023/12/18 10:44:02;;;;;;;0.15;0.15;;;;;;;;;;5072032;28;20036;-76
2023/12/18 10:46:28;;;;;;;1.48;1.38;;;;;;;;;;5089035;28;20025;-78
2023/12/18 10:48:54;;;;;;;0.60;0.60;;;;;;;;;;5089381;28;20027;-75
2023/12/18 10:51:20;;;;;;;0.40;0.40;;;;;;;;;;5071487;28;20118;-77
2023/12/18 10:53:47;;;;;;;0.28;0.28;;;;;;;;;;5089480;28;20044;-80
2023/12/18 10:56:15;;;;;;;0.63;0.57;;;;;;;;;;5089737;28;20168;-79
2023/12/18 10:58:42;;;;;;;0.30;0.30;;;;;;;;;;5071051;28;20032;-77
2023/12/18 11:01:09;;;;;;;0.10;0.10;;;;;;;;;;5089434;28;20665;-76
2023/12/18 11:03:38;;;;;;;1.00;1.00;;;;;;;;;;5071353;28;20039;-77
2023/12/18 11:06:05;;;;;;;0.95;0.82;;;;;;;;;;5089989;28;20027;-75
2023/12/18 11:08:31;;;;;;;0.20;0.20;;;;;;;;;;5070843;28;20028;-77
